sensor_id;sensor_type;location;lat;lon;timestamp;P1;durP1;ratioP1;P2;durP2;ratioP2
55469;SDS011;41334;47.872;16.384;2023-03-14T00:00:17;4.82;;;0.70;;
55469;SDS011;41334;47.872;16.384;2023-03-14T00:03:19;2.83;;;1.33;;
55469;SDS011;41334;47.872;16.384;2023-03-14T00:06:21;3.05;;;1.02;;
55469;SDS011;41334;47.872;16.384;2023-03-14T00:09:23;1.70;;;0.90;;
55469;SDS011;41334;47.872;16.384;2023-03-14T00:12:24;3.50;;;0.73;;
55469;SDS011;41334;47.872;16.384;2023-03-14T00:15:26;0.80;;;0.50;;
55469;SDS011;41334;47.872;16.384;2023-03-14T00:18:28;1.00;;;0.47;;
55469;SDS011;41334;47.872;16.384;2023-03-14T00:21:30;3.42;;;1.17;;
55469;SDS011;41334;47.872;16.384;2023-03-14T00:24:31;0.77;;;0.50;;
55469;SDS011;41334;47.872;16.384;2023-03-14T00:27:33;2.33;;;0.60;;
55469;SDS011;41334;47.872;16.384;2023-03-14T00:30:36;1.70;;;0.82;;
55469;SDS011;41334;47.872;16.384;2023-03-14T00:33:38;0.55;;;0.30;;
55469;SDS011;41334;47.872;16.384;2023-03-14T00:36:40;2.38;;;1.08;;
55469;SDS011;41334;47.872;16.384;2023-03-14T00:39:42;17.33;;;1.35;;
55469;SDS011;41334;47.872;16.384;2023-03-14T00:42:43;0.75;;;0.47;;
55469;SDS011;41334;47.872;16.384;2023-03-14T00:45:45;3.05;;;1.17;;
55469;SDS011;41334;47.872;16.384;2023-03-14T00:48:47;2.28;;;1.02;;
55469;SDS011;41334;47.872;16.384;2023-03-14T00:51:49;0.80;;;0.20;;
55469;SDS011;41334;47.872;16.384;2023-03-14T00:54:50;1.67;;;0.73;;
55469;SDS011;41334;47.872;16.384;2023-03-14T00:57:52;1.45;;;0.43;;
55469;SDS011;41334;47.872;16.384;2023-03-14T01:00:54;2.97;;;0.73;;
55469;SDS011;41334;47.872;16.384;2023-03-14T01:03:56;1.08;;;0.50;;
55469;SDS011;41334;47.872;16.384;2023-03-14T01:06:57;0.38;;;0.22;;
55469;SDS011;41334;47.872;16.384;2023-03-14T01:09:59;3.60;;;0.60;;
55469;SDS011;41334;47.872;16.384;2023-03-14T01:13:01;0.90;;;0.40;;
55469;SDS011;41334;47.872;16.384;2023-03-14T01:16:03;1.92;;;0.88;;
55469;SDS011;41334;47.872;16.384;2023-03-14T01:19:10;3.25;;;1.13;;
55469;SDS011;41334;47.872;16.384;2023-03-14T01:22:12;5.05;;;0.82;;
55469;SDS011;41334;47.872;16.384;2023-03-14T01:25:14;2.42;;;1.10;;
55469;SDS011;41334;47.872;16.384;2023-03-14T01:28:16;3.47;;;1.30;;
55469;SDS011;41334;47.872;16.384;2023-03-14T01:31:18;0.40;;;0.28;;
55469;SDS011;41334;47.872;16.384;2023-03-14T01:34:20;1.38;;;0.70;;
55469;SDS011;41334;47.872;16.384;2023-03-14T01:37:23;1.70;;;0.73;;
55469;SDS011;41334;47.872;16.384;2023-03-14T01:40:25;2.65;;;0.60;;
55469;SDS011;41334;47.872;16.384;2023-03-14T01:43:27;4.32;;;1.00;;
55469;SDS011;41334;47.872;16.384;2023-03-14T01:46:43;0.47;;;0.22;;
55469;SDS011;41334;47.872;16.384;2023-03-14T01:49:46;2.38;;;0.80;;
55469;SDS011;41334;47.872;16.384;2023-03-14T01:52:50;3.85;;;1.13;;
55469;SDS011;41334;47.872;16.384;2023-03-14T01:55:54;1.10;;;0.40;;
55469;SDS011;41334;47.872;16.384;2023-03-14T01:58:57;6.70;;;0.55;;
55469;SDS011;41334;47.872;16.384;2023-03-14T02:02:00;2.08;;;0.75;;
55469;SDS011;41334;47.872;16.384;2023-03-14T02:05:06;1.30;;;0.70;;
55469;SDS011;41334;47.872;16.384;2023-03-14T02:08:11;1.23;;;0.60;;
55469;SDS011;41334;47.872;16.384;2023-03-14T02:11:22;4.50;;;0.75;;
55469;SDS011;41334;47.872;16.384;2023-03-14T02:14:36;2.42;;;0.90;;
55469;SDS011;41334;47.872;16.384;2023-03-14T02:18:07;2.13;;;0.85;;
55469;SDS011;41334;47.872;16.384;2023-03-14T02:25:15;5.18;;;1.35;;
55469;SDS011;41334;47.872;16.384;2023-03-14T02:28:19;1.27;;;0.57;;
55469;SDS011;41334;47.872;16.384;2023-03-14T02:31:25;3.17;;;1.92;;
55469;SDS011;41334;47.872;16.384;2023-03-14T02:34:27;1.48;;;0.80;;
55469;SDS011;41334;47.872;16.384;2023-03-14T02:37:35;5.03;;;0.93;;
55469;SDS011;41334;47.872;16.384;2023-03-14T02:40:38;4.28;;;1.30;;
55469;SDS011;41334;47.872;16.384;2023-03-14T02:43:41;0.45;;;0.20;;
55469;SDS011;41334;47.872;16.384;2023-03-14T02:46:45;1.80;;;1.10;;
55469;SDS011;41334;47.872;16.384;2023-03-14T02:49:47;4.40;;;1.98;;
55469;SDS011;41334;47.872;16.384;2023-03-14T02:52:49;3.78;;;1.88;;
55469;SDS011;41334;47.872;16.384;2023-03-14T02:55:52;5.55;;;1.63;;
55469;SDS011;41334;47.872;16.384;2023-03-14T02:58:56;2.83;;;0.82;;
55469;SDS011;41334;47.872;16.384;2023-03-14T03:02:09;3.85;;;1.17;;
55469;SDS011;41334;47.872;16.384;2023-03-14T03:05:11;1.33;;;0.80;;
55469;SDS011;41334;47.872;16.384;2023-03-14T03:08:13;3.20;;;1.45;;
55469;SDS011;41334;47.872;16.384;2023-03-14T03:11:15;3.60;;;1.65;;
55469;SDS011;41334;47.872;16.384;2023-03-14T03:14:16;2.08;;;1.02;;
55469;SDS011;41334;47.872;16.384;2023-03-14T03:17:18;3.30;;;1.75;;
55469;SDS011;41334;47.872;16.384;2023-03-14T03:20:20;0.90;;;0.52;;
55469;SDS011;41334;47.872;16.384;2023-03-14T03:23:21;0.98;;;0.43;;
55469;SDS011;41334;47.872;16.384;2023-03-14T03:26:23;1.00;;;0.68;;
55469;SDS011;41334;47.872;16.384;2023-03-14T03:29:25;2.25;;;1.25;;
55469;SDS011;41334;47.872;16.384;2023-03-14T03:32:27;4.45;;;1.33;;
55469;SDS011;41334;47.872;16.384;2023-03-14T03:35:29;3.33;;;1.67;;
55469;SDS011;41334;47.872;16.384;2023-03-14T03:38:31;3.92;;;1.90;;
55469;SDS011;41334;47.872;16.384;2023-03-14T03:41:35;2.95;;;1.60;;
55469;SDS011;41334;47.872;16.384;2023-03-14T03:44:37;5.22;;;1.83;;
55469;SDS011;41334;47.872;16.384;2023-03-14T03:47:38;4.50;;;2.10;;
55469;SDS011;41334;47.872;16.384;2023-03-14T03:50:50;3.15;;;1.63;;
55469;SDS011;41334;47.872;16.384;2023-03-14T03:53:55;2.78;;;1.50;;
55469;SDS011;41334;47.872;16.384;2023-03-14T03:57:04;4.65;;;2.00;;
55469;SDS011;41334;47.872;16.384;2023-03-14T04:00:09;5.53;;;1.95;;
55469;SDS011;41334;47.872;16.384;2023-03-14T04:03:16;7.40;;;2.13;;
55469;SDS011;41334;47.872;16.384;2023-03-14T04:06:18;2.97;;;1.27;;
55469;SDS011;41334;47.872;16.384;2023-03-14T04:09:22;1.33;;;0.93;;
55469;SDS011;41334;47.872;16.384;2023-03-14T04:12:41;3.72;;;1.80;;
55469;SDS011;41334;47.872;16.384;2023-03-14T04:15:47;2.67;;;1.20;;
55469;SDS011;41334;47.872;16.384;2023-03-14T04:18:54;4.57;;;2.30;;
55469;SDS011;41334;47.872;16.384;2023-03-14T04:21:57;5.55;;;2.85;;
55469;SDS011;41334;47.872;16.384;2023-03-14T04:25:03;2.83;;;1.45;;
55469;SDS011;41334;47.872;16.384;2023-03-14T04:28:09;6.32;;;2.08;;
55469;SDS011;41334;47.872;16.384;2023-03-14T04:31:15;5.32;;;2.00;;
55469;SDS011;41334;47.872;16.384;2023-03-14T04:37:45;4.28;;;1.80;;
55469;SDS011;41334;47.872;16.384;2023-03-14T04:40:51;1.42;;;0.85;;
55469;SDS011;41334;47.872;16.384;2023-03-14T04:43:56;5.25;;;2.30;;
55469;SDS011;41334;47.872;16.384;2023-03-14T04:46:58;8.80;;;2.58;;
55469;SDS011;41334;47.872;16.384;2023-03-14T04:50:00;3.08;;;1.48;;
55469;SDS011;41334;47.872;16.384;2023-03-14T04:53:02;3.05;;;0.82;;
55469;SDS011;41334;47.872;16.384;2023-03-14T04:56:05;1.52;;;0.57;;
55469;SDS011;41334;47.872;16.384;2023-03-14T04:59:12;4.45;;;2.20;;
55469;SDS011;41334;47.872;16.384;2023-03-14T05:02:15;3.25;;;1.40;;
55469;SDS011;41334;47.872;16.384;2023-03-14T05:05:37;3.88;;;2.00;;
55469;SDS011;41334;47.872;16.384;2023-03-14T05:08:57;3.22;;;1.65;;
55469;SDS011;41334;47.872;16.384;2023-03-14T05:11:59;3.90;;;1.60;;
55469;SDS011;41334;47.872;16.384;2023-03-14T05:15:15;3.60;;;1.80;;
55469;SDS011;41334;47.872;16.384;2023-03-14T05:18:52;5.22;;;1.58;;
55469;SDS011;41334;47.872;16.384;2023-03-14T05:22:13;8.93;;;1.95;;
55469;SDS011;41334;47.872;16.384;2023-03-14T05:25:18;2.85;;;1.45;;
55469;SDS011;41334;47.872;16.384;2023-03-14T05:28:42;4.93;;;2.40;;
55469;SDS011;41334;47.872;16.384;2023-03-14T05:32:02;2.60;;;1.45;;
55469;SDS011;41334;47.872;16.384;2023-03-14T05:35:24;8.23;;;1.70;;
55469;SDS011;41334;47.872;16.384;2023-03-14T05:38:40;3.58;;;1.00;;
55469;SDS011;41334;47.872;16.384;2023-03-14T05:42:05;2.85;;;1.10;;
55469;SDS011;41334;47.872;16.384;2023-03-14T05:45:29;4.05;;;1.85;;
55469;SDS011;41334;47.872;16.384;2023-03-14T05:48:50;8.57;;;2.67;;
55469;SDS011;41334;47.872;16.384;2023-03-14T05:52:43;7.75;;;2.80;;
55469;SDS011;41334;47.872;16.384;2023-03-14T05:56:08;3.05;;;1.65;;
55469;SDS011;41334;47.872;16.384;2023-03-14T05:59:33;4.28;;;1.75;;
55469;SDS011;41334;47.872;16.384;2023-03-14T06:02:53;0.47;;;0.25;;
55469;SDS011;41334;47.872;16.384;2023-03-14T06:06:02;0.00;;;0.00;;
55469;SDS011;41334;47.872;16.384;2023-03-14T06:09:04;6.18;;;1.95;;
55469;SDS011;41334;47.872;16.384;2023-03-14T06:12:13;3.60;;;1.50;;
55469;SDS011;41334;47.872;16.384;2023-03-14T06:15:17;5.05;;;2.28;;
55469;SDS011;41334;47.872;16.384;2023-03-14T06:18:22;3.45;;;2.25;;
55469;SDS011;41334;47.872;16.384;2023-03-14T06:21:24;5.35;;;1.52;;
55469;SDS011;41334;47.872;16.384;2023-03-14T06:24:29;4.60;;;2.00;;
55469;SDS011;41334;47.872;16.384;2023-03-14T06:27:31;5.13;;;2.38;;
55469;SDS011;41334;47.872;16.384;2023-03-14T06:30:33;6.32;;;1.92;;
55469;SDS011;41334;47.872;16.384;2023-03-14T06:33:35;4.22;;;1.98;;
55469;SDS011;41334;47.872;16.384;2023-03-14T06:36:37;0.30;;;0.10;;
55469;SDS011;41334;47.872;16.384;2023-03-14T06:39:39;2.05;;;0.45;;
55469;SDS011;41334;47.872;16.384;2023-03-14T06:42:52;5.47;;;2.00;;
55469;SDS011;41334;47.872;16.384;2023-03-14T06:45:55;5.30;;;2.33;;
55469;SDS011;41334;47.872;16.384;2023-03-14T06:48:58;4.95;;;1.73;;
55469;SDS011;41334;47.872;16.384;2023-03-14T06:52:00;3.42;;;1.65;;
55469;SDS011;41334;47.872;16.384;2023-03-14T06:55:03;4.38;;;2.22;;
55469;SDS011;41334;47.872;16.384;2023-03-14T06:58:05;11.85;;;3.30;;
55469;SDS011;41334;47.872;16.384;2023-03-14T07:01:17;4.63;;;2.67;;
55469;SDS011;41334;47.872;16.384;2023-03-14T07:04:21;12.45;;;2.88;;
55469;SDS011;41334;47.872;16.384;2023-03-14T07:07:23;5.28;;;2.60;;
55469;SDS011;41334;47.872;16.384;2023-03-14T07:10:25;5.78;;;2.75;;
55469;SDS011;41334;47.872;16.384;2023-03-14T07:13:27;6.68;;;2.58;;
55469;SDS011;41334;47.872;16.384;2023-03-14T07:16:35;4.40;;;1.65;;
55469;SDS011;41334;47.872;16.384;2023-03-14T07:19:37;5.85;;;2.03;;
55469;SDS011;41334;47.872;16.384;2023-03-14T07:22:41;8.90;;;2.92;;
55469;SDS011;41334;47.872;16.384;2023-03-14T07:25:43;5.30;;;2.15;;
55469;SDS011;41334;47.872;16.384;2023-03-14T07:28:45;6.35;;;2.20;;
55469;SDS011;41334;47.872;16.384;2023-03-14T07:31:51;5.00;;;2.30;;
55469;SDS011;41334;47.872;16.384;2023-03-14T07:34:54;5.55;;;3.13;;
55469;SDS011;41334;47.872;16.384;2023-03-14T07:37:56;5.80;;;2.55;;
55469;SDS011;41334;47.872;16.384;2023-03-14T07:41:06;10.00;;;2.83;;
55469;SDS011;41334;47.872;16.384;2023-03-14T07:44:13;3.78;;;2.00;;
55469;SDS011;41334;47.872;16.384;2023-03-14T07:47:15;7.13;;;2.95;;
55469;SDS011;41334;47.872;16.384;2023-03-14T07:50:17;9.27;;;2.95;;
55469;SDS011;41334;47.872;16.384;2023-03-14T07:53:19;4.43;;;2.47;;
55469;SDS011;41334;47.872;16.384;2023-03-14T07:56:21;3.88;;;2.15;;
55469;SDS011;41334;47.872;16.384;2023-03-14T07:59:22;3.40;;;2.05;;
55469;SDS011;41334;47.872;16.384;2023-03-14T08:02:24;4.75;;;2.15;;
55469;SDS011;41334;47.872;16.384;2023-03-14T08:05:26;3.40;;;1.45;;
55469;SDS011;41334;47.872;16.384;2023-03-14T08:08:27;9.77;;;2.95;;
55469;SDS011;41334;47.872;16.384;2023-03-14T08:11:29;5.85;;;3.17;;
55469;SDS011;41334;47.872;16.384;2023-03-14T08:14:31;4.53;;;2.38;;
55469;SDS011;41334;47.872;16.384;2023-03-14T08:17:32;5.88;;;2.90;;
55469;SDS011;41334;47.872;16.384;2023-03-14T08:20:35;7.07;;;2.85;;
55469;SDS011;41334;47.872;16.384;2023-03-14T08:23:39;5.75;;;3.05;;
55469;SDS011;41334;47.872;16.384;2023-03-14T08:26:41;5.78;;;2.83;;
55469;SDS011;41334;47.872;16.384;2023-03-14T08:29:43;7.90;;;3.50;;
55469;SDS011;41334;47.872;16.384;2023-03-14T08:32:45;5.07;;;2.92;;
55469;SDS011;41334;47.872;16.384;2023-03-14T08:35:47;7.38;;;3.03;;
55469;SDS011;41334;47.872;16.384;2023-03-14T08:38:49;7.05;;;3.33;;
55469;SDS011;41334;47.872;16.384;2023-03-14T08:41:51;8.25;;;3.47;;
55469;SDS011;41334;47.872;16.384;2023-03-14T08:44:52;5.30;;;3.15;;
55469;SDS011;41334;47.872;16.384;2023-03-14T08:47:54;6.78;;;2.42;;
55469;SDS011;41334;47.872;16.384;2023-03-14T08:50:56;6.35;;;3.00;;
55469;SDS011;41334;47.872;16.384;2023-03-14T08:53:58;6.32;;;2.05;;
55469;SDS011;41334;47.872;16.384;2023-03-14T08:57:00;5.25;;;2.35;;
55469;SDS011;41334;47.872;16.384;2023-03-14T09:00:02;4.90;;;2.40;;
55469;SDS011;41334;47.872;16.384;2023-03-14T09:03:06;5.45;;;2.50;;
55469;SDS011;41334;47.872;16.384;2023-03-14T09:06:09;5.00;;;2.22;;
55469;SDS011;41334;47.872;16.384;2023-03-14T09:09:11;8.10;;;1.92;;
55469;SDS011;41334;47.872;16.384;2023-03-14T09:12:17;9.02;;;3.28;;
55469;SDS011;41334;47.872;16.384;2023-03-14T09:15:19;8.32;;;2.20;;
55469;SDS011;41334;47.872;16.384;2023-03-14T09:18:20;6.70;;;2.55;;
55469;SDS011;41334;47.872;16.384;2023-03-14T09:21:22;6.22;;;2.67;;
55469;SDS011;41334;47.872;16.384;2023-03-14T09:24:24;6.68;;;2.53;;
55469;SDS011;41334;47.872;16.384;2023-03-14T09:27:26;8.23;;;2.20;;
55469;SDS011;41334;47.872;16.384;2023-03-14T09:30:27;11.23;;;2.47;;
55469;SDS011;41334;47.872;16.384;2023-03-14T09:33:29;6.00;;;2.15;;
55469;SDS011;41334;47.872;16.384;2023-03-14T09:36:31;14.50;;;1.88;;
55469;SDS011;41334;47.872;16.384;2023-03-14T09:39:32;8.43;;;1.98;;
55469;SDS011;41334;47.872;16.384;2023-03-14T09:42:34;7.57;;;2.10;;
55469;SDS011;41334;47.872;16.384;2023-03-14T09:45:39;11.27;;;2.15;;
55469;SDS011;41334;47.872;16.384;2023-03-14T09:48:41;5.47;;;1.67;;
55469;SDS011;41334;47.872;16.384;2023-03-14T09:51:45;7.47;;;2.00;;
55469;SDS011;41334;47.872;16.384;2023-03-14T09:54:50;9.02;;;2.42;;
55469;SDS011;41334;47.872;16.384;2023-03-14T09:57:55;8.57;;;2.95;;
55469;SDS011;41334;47.872;16.384;2023-03-14T10:00:57;10.27;;;2.22;;
55469;SDS011;41334;47.872;16.384;2023-03-14T10:04:05;3.10;;;1.75;;
55469;SDS011;41334;47.872;16.384;2023-03-14T10:07:09;3.35;;;1.70;;
55469;SDS011;41334;47.872;16.384;2023-03-14T10:13:21;7.43;;;1.70;;
55469;SDS011;41334;47.872;16.384;2023-03-14T10:16:28;5.22;;;1.92;;
55469;SDS011;41334;47.872;16.384;2023-03-14T10:19:30;3.28;;;1.60;;
55469;SDS011;41334;47.872;16.384;2023-03-14T10:22:32;4.95;;;1.90;;
55469;SDS011;41334;47.872;16.384;2023-03-14T10:25:35;8.02;;;3.10;;
55469;SDS011;41334;47.872;16.384;2023-03-14T10:28:38;3.08;;;1.60;;
55469;SDS011;41334;47.872;16.384;2023-03-14T10:31:48;5.03;;;2.15;;
55469;SDS011;41334;47.872;16.384;2023-03-14T10:41:25;7.95;;;2.45;;
55469;SDS011;41334;47.872;16.384;2023-03-14T10:44:27;4.80;;;1.70;;
55469;SDS011;41334;47.872;16.384;2023-03-14T10:47:29;5.60;;;2.17;;
55469;SDS011;41334;47.872;16.384;2023-03-14T10:50:31;9.75;;;1.85;;
55469;SDS011;41334;47.872;16.384;2023-03-14T10:53:34;8.43;;;1.90;;
55469;SDS011;41334;47.872;16.384;2023-03-14T10:56:39;5.60;;;1.92;;
55469;SDS011;41334;47.872;16.384;2023-03-14T10:59:41;5.15;;;2.47;;
55469;SDS011;41334;47.872;16.384;2023-03-14T11:25:49;5.38;;;1.60;;
55469;SDS011;41334;47.872;16.384;2023-03-14T11:28:58;4.15;;;1.30;;
55469;SDS011;41334;47.872;16.384;2023-03-14T11:32:04;3.33;;;1.20;;
55469;SDS011;41334;47.872;16.384;2023-03-14T11:35:16;6.43;;;1.13;;
55469;SDS011;41334;47.872;16.384;2023-03-14T11:41:25;0.68;;;0.30;;
55469;SDS011;41334;47.872;16.384;2023-03-14T11:44:28;0.20;;;0.10;;
55469;SDS011;41334;47.872;16.384;2023-03-14T11:47:34;1.85;;;0.52;;
55469;SDS011;41334;47.872;16.384;2023-03-14T11:50:39;0.70;;;0.20;;
55469;SDS011;41334;47.872;16.384;2023-03-14T11:53:48;0.55;;;0.20;;
55469;SDS011;41334;47.872;16.384;2023-03-14T11:56:55;0.10;;;0.10;;
55469;SDS011;41334;47.872;16.384;2023-03-14T12:00:18;0.00;;;0.00;;
55469;SDS011;41334;47.872;16.384;2023-03-14T12:06:30;0.77;;;0.22;;
55469;SDS011;41334;47.872;16.384;2023-03-14T12:09:33;0.03;;;0.00;;
55469;SDS011;41334;47.872;16.384;2023-03-14T12:12:36;0.10;;;0.10;;
55469;SDS011;41334;47.872;16.384;2023-03-14T12:15:39;0.55;;;0.22;;
55469;SDS011;41334;47.872;16.384;2023-03-14T12:18:41;3.83;;;0.63;;
55469;SDS011;41334;47.872;16.384;2023-03-14T12:21:51;0.00;;;0.00;;
55469;SDS011;41334;47.872;16.384;2023-03-14T12:24:58;0.20;;;0.10;;
55469;SDS011;41334;47.872;16.384;2023-03-14T12:28:16;0.20;;;0.10;;
55469;SDS011;41334;47.872;16.384;2023-03-14T12:34:41;0.20;;;0.00;;
55469;SDS011;41334;47.872;16.384;2023-03-14T12:37:44;0.05;;;0.00;;
55469;SDS011;41334;47.872;16.384;2023-03-14T12:41:34;0.35;;;0.22;;
55469;SDS011;41334;47.872;16.384;2023-03-14T12:50:34;2.08;;;0.30;;
55469;SDS011;41334;47.872;16.384;2023-03-14T13:00:00;0.00;;;0.00;;
55469;SDS011;41334;47.872;16.384;2023-03-14T13:09:49;0.00;;;0.00;;
55469;SDS011;41334;47.872;16.384;2023-03-14T13:15:56;0.75;;;0.30;;
55469;SDS011;41334;47.872;16.384;2023-03-14T13:19:02;0.35;;;0.10;;
55469;SDS011;41334;47.872;16.384;2023-03-14T13:22:12;0.30;;;0.17;;
55469;SDS011;41334;47.872;16.384;2023-03-14T13:25:15;0.20;;;0.15;;
55469;SDS011;41334;47.872;16.384;2023-03-14T13:28:20;0.40;;;0.10;;
55469;SDS011;41334;47.872;16.384;2023-03-14T13:31:23;1.05;;;0.32;;
55469;SDS011;41334;47.872;16.384;2023-03-14T13:34:26;1.52;;;0.60;;
55469;SDS011;41334;47.872;16.384;2023-03-14T13:37:28;1.33;;;0.30;;
55469;SDS011;41334;47.872;16.384;2023-03-14T13:40:33;1.83;;;0.52;;
55469;SDS011;41334;47.872;16.384;2023-03-14T13:43:36;0.20;;;0.10;;
55469;SDS011;41334;47.872;16.384;2023-03-14T13:46:40;4.50;;;1.88;;
55469;SDS011;41334;47.872;16.384;2023-03-14T13:49:42;5.03;;;1.15;;
55469;SDS011;41334;47.872;16.384;2023-03-14T13:52:44;0.90;;;0.30;;
55469;SDS011;41334;47.872;16.384;2023-03-14T13:55:47;4.82;;;2.35;;
55469;SDS011;41334;47.872;16.384;2023-03-14T13:58:50;3.88;;;2.15;;
55469;SDS011;41334;47.872;16.384;2023-03-14T14:01:52;1.17;;;0.50;;
55469;SDS011;41334;47.872;16.384;2023-03-14T14:04:55;1.02;;;0.45;;
55469;SDS011;41334;47.872;16.384;2023-03-14T14:07:57;0.60;;;0.10;;
55469;SDS011;41334;47.872;16.384;2023-03-14T14:11:00;0.73;;;0.30;;
55469;SDS011;41334;47.872;16.384;2023-03-14T14:14:04;1.42;;;0.55;;
55469;SDS011;41334;47.872;16.384;2023-03-14T14:17:08;2.42;;;1.17;;
55469;SDS011;41334;47.872;16.384;2023-03-14T14:20:14;1.20;;;0.20;;
55469;SDS011;41334;47.872;16.384;2023-03-14T14:23:21;1.35;;;0.40;;
55469;SDS011;41334;47.872;16.384;2023-03-14T14:26:26;3.38;;;1.05;;
55469;SDS011;41334;47.872;16.384;2023-03-14T14:29:30;2.85;;;0.85;;
55469;SDS011;41334;47.872;16.384;2023-03-14T14:32:36;1.83;;;0.60;;
55469;SDS011;41334;47.872;16.384;2023-03-14T14:35:38;0.35;;;0.17;;
55469;SDS011;41334;47.872;16.384;2023-03-14T14:38:39;3.83;;;1.20;;
55469;SDS011;41334;47.872;16.384;2023-03-14T14:41:41;3.28;;;0.88;;
55469;SDS011;41334;47.872;16.384;2023-03-14T14:44:43;9.35;;;0.80;;
55469;SDS011;41334;47.872;16.384;2023-03-14T14:47:52;3.90;;;1.13;;
55469;SDS011;41334;47.872;16.384;2023-03-14T14:54:14;3.55;;;0.50;;
55469;SDS011;41334;47.872;16.384;2023-03-14T14:57:20;3.15;;;0.38;;
55469;SDS011;41334;47.872;16.384;2023-03-14T15:00:23;0.98;;;0.20;;
55469;SDS011;41334;47.872;16.384;2023-03-14T15:03:26;1.20;;;0.43;;
55469;SDS011;41334;47.872;16.384;2023-03-14T15:06:29;2.60;;;1.00;;
55469;SDS011;41334;47.872;16.384;2023-03-14T15:09:32;0.70;;;0.30;;
55469;SDS011;41334;47.872;16.384;2023-03-14T15:12:34;0.40;;;0.20;;
55469;SDS011;41334;47.872;16.384;2023-03-14T15:15:35;0.88;;;0.30;;
55469;SDS011;41334;47.872;16.384;2023-03-14T15:18:37;6.13;;;1.80;;
55469;SDS011;41334;47.872;16.384;2023-03-14T15:21:39;1.90;;;0.70;;
55469;SDS011;41334;47.872;16.384;2023-03-14T15:24:41;1.67;;;0.60;;
55469;SDS011;41334;47.872;16.384;2023-03-14T15:27:43;1.75;;;0.73;;
55469;SDS011;41334;47.872;16.384;2023-03-14T15:30:45;2.63;;;1.05;;
55469;SDS011;41334;47.872;16.384;2023-03-14T15:33:47;3.63;;;1.90;;
55469;SDS011;41334;47.872;16.384;2023-03-14T15:36:52;6.15;;;2.00;;
55469;SDS011;41334;47.872;16.384;2023-03-14T15:39:54;5.35;;;2.28;;
55469;SDS011;41334;47.872;16.384;2023-03-14T15:42:59;10.93;;;5.55;;
55469;SDS011;41334;47.872;16.384;2023-03-14T15:46:01;3.75;;;2.00;;
55469;SDS011;41334;47.872;16.384;2023-03-14T15:49:03;9.73;;;2.70;;
55469;SDS011;41334;47.872;16.384;2023-03-14T15:52:04;9.02;;;2.85;;
55469;SDS011;41334;47.872;16.384;2023-03-14T15:55:07;9.93;;;3.20;;
55469;SDS011;41334;47.872;16.384;2023-03-14T15:58:11;6.97;;;2.47;;
55469;SDS011;41334;47.872;16.384;2023-03-14T16:01:16;8.00;;;3.38;;
55469;SDS011;41334;47.872;16.384;2023-03-14T16:04:18;4.63;;;1.83;;
55469;SDS011;41334;47.872;16.384;2023-03-14T16:07:19;3.63;;;1.85;;
55469;SDS011;41334;47.872;16.384;2023-03-14T16:10:21;2.90;;;1.58;;
55469;SDS011;41334;47.872;16.384;2023-03-14T16:13:23;3.72;;;1.73;;
55469;SDS011;41334;47.872;16.384;2023-03-14T16:16:25;3.50;;;1.52;;
55469;SDS011;41334;47.872;16.384;2023-03-14T16:19:27;3.72;;;1.42;;
55469;SDS011;41334;47.872;16.384;2023-03-14T16:22:32;3.85;;;1.73;;
55469;SDS011;41334;47.872;16.384;2023-03-14T16:25:36;2.90;;;1.55;;
55469;SDS011;41334;47.872;16.384;2023-03-14T16:28:38;3.25;;;1.58;;
55469;SDS011;41334;47.872;16.384;2023-03-14T16:31:39;3.03;;;1.60;;
55469;SDS011;41334;47.872;16.384;2023-03-14T16:34:43;2.25;;;1.02;;
55469;SDS011;41334;47.872;16.384;2023-03-14T16:37:45;1.73;;;0.88;;
55469;SDS011;41334;47.872;16.384;2023-03-14T16:40:57;4.30;;;1.00;;
55469;SDS011;41334;47.872;16.384;2023-03-14T16:43:59;2.58;;;0.98;;
55469;SDS011;41334;47.872;16.384;2023-03-14T16:47:02;1.52;;;0.80;;
55469;SDS011;41334;47.872;16.384;2023-03-14T16:50:04;1.70;;;0.60;;
55469;SDS011;41334;47.872;16.384;2023-03-14T16:53:06;3.05;;;0.35;;
55469;SDS011;41334;47.872;16.384;2023-03-14T16:56:12;2.47;;;1.38;;
55469;SDS011;41334;47.872;16.384;2023-03-14T16:59:14;3.08;;;0.90;;
55469;SDS011;41334;47.872;16.384;2023-03-14T17:02:16;2.03;;;0.98;;
55469;SDS011;41334;47.872;16.384;2023-03-14T17:05:17;3.83;;;1.15;;
55469;SDS011;41334;47.872;16.384;2023-03-14T17:08:21;4.50;;;2.15;;
55469;SDS011;41334;47.872;16.384;2023-03-14T17:11:25;5.00;;;2.88;;
55469;SDS011;41334;47.872;16.384;2023-03-14T17:14:27;5.53;;;1.95;;
55469;SDS011;41334;47.872;16.384;2023-03-14T17:17:29;3.15;;;1.65;;
55469;SDS011;41334;47.872;16.384;2023-03-14T17:20:30;4.57;;;1.73;;
55469;SDS011;41334;47.872;16.384;2023-03-14T17:23:32;5.20;;;1.80;;
55469;SDS011;41334;47.872;16.384;2023-03-14T17:26:34;4.65;;;2.10;;
55469;SDS011;41334;47.872;16.384;2023-03-14T17:29:36;7.50;;;2.28;;
55469;SDS011;41334;47.872;16.384;2023-03-14T17:32:38;5.78;;;2.85;;
55469;SDS011;41334;47.872;16.384;2023-03-14T17:35:41;6.65;;;4.32;;
55469;SDS011;41334;47.872;16.384;2023-03-14T17:38:43;6.82;;;3.42;;
55469;SDS011;41334;47.872;16.384;2023-03-14T17:41:45;4.70;;;2.67;;
55469;SDS011;41334;47.872;16.384;2023-03-14T17:44:47;4.55;;;2.30;;
55469;SDS011;41334;47.872;16.384;2023-03-14T17:47:50;4.35;;;1.90;;
55469;SDS011;41334;47.872;16.384;2023-03-14T17:50:52;4.75;;;2.00;;
55469;SDS011;41334;47.872;16.384;2023-03-14T17:53:58;4.25;;;2.10;;
55469;SDS011;41334;47.872;16.384;2023-03-14T17:56:59;4.00;;;2.00;;
55469;SDS011;41334;47.872;16.384;2023-03-14T18:00:01;9.35;;;4.00;;
55469;SDS011;41334;47.872;16.384;2023-03-14T18:03:07;7.22;;;4.57;;
55469;SDS011;41334;47.872;16.384;2023-03-14T18:06:09;12.02;;;6.53;;
55469;SDS011;41334;47.872;16.384;2023-03-14T18:09:11;12.50;;;6.25;;
55469;SDS011;41334;47.872;16.384;2023-03-14T18:12:13;10.55;;;6.05;;
55469;SDS011;41334;47.872;16.384;2023-03-14T18:15:15;11.25;;;5.32;;
55469;SDS011;41334;47.872;16.384;2023-03-14T18:18:17;9.98;;;4.38;;
55469;SDS011;41334;47.872;16.384;2023-03-14T18:21:19;10.52;;;5.25;;
55469;SDS011;41334;47.872;16.384;2023-03-14T18:24:22;6.28;;;3.20;;
55469;SDS011;41334;47.872;16.384;2023-03-14T18:27:23;6.35;;;4.35;;
55469;SDS011;41334;47.872;16.384;2023-03-14T18:30:25;7.55;;;4.55;;
55469;SDS011;41334;47.872;16.384;2023-03-14T18:33:27;9.80;;;4.07;;
55469;SDS011;41334;47.872;16.384;2023-03-14T18:36:29;7.20;;;3.83;;
55469;SDS011;41334;47.872;16.384;2023-03-14T18:39:31;6.05;;;3.30;;
55469;SDS011;41334;47.872;16.384;2023-03-14T18:42:32;6.60;;;2.85;;
55469;SDS011;41334;47.872;16.384;2023-03-14T18:45:34;5.05;;;2.55;;
55469;SDS011;41334;47.872;16.384;2023-03-14T18:48:36;4.57;;;2.50;;
55469;SDS011;41334;47.872;16.384;2023-03-14T18:51:43;7.50;;;2.55;;
55469;SDS011;41334;47.872;16.384;2023-03-14T18:54:44;9.18;;;2.63;;
55469;SDS011;41334;47.872;16.384;2023-03-14T18:57:46;6.15;;;2.30;;
55469;SDS011;41334;47.872;16.384;2023-03-14T19:00:48;7.03;;;3.15;;
55469;SDS011;41334;47.872;16.384;2023-03-14T19:03:50;10.82;;;2.40;;
55469;SDS011;41334;47.872;16.384;2023-03-14T19:06:51;7.03;;;2.63;;
55469;SDS011;41334;47.872;16.384;2023-03-14T19:09:54;4.75;;;2.53;;
55469;SDS011;41334;47.872;16.384;2023-03-14T19:12:56;1.55;;;1.08;;
55469;SDS011;41334;47.872;16.384;2023-03-14T19:15:58;3.85;;;1.48;;
55469;SDS011;41334;47.872;16.384;2023-03-14T19:19:00;0.70;;;0.43;;
55469;SDS011;41334;47.872;16.384;2023-03-14T19:22:01;0.10;;;0.10;;
55469;SDS011;41334;47.872;16.384;2023-03-14T19:25:03;0.22;;;0.10;;
55469;SDS011;41334;47.872;16.384;2023-03-14T19:28:06;0.20;;;0.00;;